Terminal Aerodrome Forecast
Issued by NWS

Home | Current Version | Previous Version | Text Only | Print | Product List | Glossary On
Versions: 1 2 3 4 5 6 7 8 9 10 11 12 13 14 15 16 17 18
000
FTUS46 KMTR 161100 CCA
TAFOAK
TAF COR
KOAK 161127Z 1612/1718 28004KT P6SM SCT011
      TEMPO 1612/1616 BKN011
     FM161700 29006KT P6SM FEW010
     FM161900 30011KT P6SM SKC
     FM170300 29007KT P6SM FEW010
     FM170900 26008KT P6SM BKN012=

USA.gov is the U.S. government's official web portal to all federal, state and local government web resources and services.